createdAt,value
2022-10-20T00:01:29.468Z,13.40
2022-10-20T00:03:58.977Z,14.40
2022-10-20T00:06:30.144Z,13.67
2022-10-20T00:09:03.134Z,13.60
2022-10-20T00:11:32.714Z,14.30
2022-10-20T00:14:02.938Z,14.77
2022-10-20T00:16:34.054Z,14.90
2022-10-20T00:19:03.058Z,15.97
2022-10-20T00:21:33.226Z,15.53
2022-10-20T00:24:03.886Z,16.00
2022-10-20T00:26:34.315Z,16.10
2022-10-20T00:29:05.222Z,15.47
2022-10-20T00:31:34.393Z,14.83
2022-10-20T00:34:03.334Z,14.63
2022-10-20T00:36:32.445Z,14.00
2022-10-20T00:39:04.691Z,12.63
2022-10-20T00:41:35.166Z,12.30
2022-10-20T00:44:25.495Z,12.93
2022-10-20T00:46:54.625Z,13.70
2022-10-20T00:49:26.601Z,13.33
2022-10-20T00:51:56.089Z,12.17
2022-10-20T00:54:28.516Z,13.10
2022-10-20T00:56:59.723Z,13.60
2022-10-20T00:59:33.061Z,13.10
2022-10-20T01:02:03.585Z,13.20
2022-10-20T01:04:33.270Z,12.30
2022-10-20T01:07:02.845Z,11.67
2022-10-20T01:09:34.697Z,12.20
2022-10-20T01:12:14.859Z,13.57
2022-10-20T01:14:55.203Z,12.30
2022-10-20T01:17:32.161Z,12.23
2022-10-20T01:20:43.564Z,12.30
2022-10-20T01:24:01.612Z,12.73
2022-10-20T01:26:47.637Z,11.77
2022-10-20T01:29:26.048Z,12.53
2022-10-20T01:32:06.949Z,11.90
2022-10-20T01:34:42.532Z,11.50
2022-10-20T01:37:28.354Z,11.77
2022-10-20T01:40:14.940Z,13.17
2022-10-20T01:42:45.717Z,12.83
2022-10-20T01:45:18.771Z,12.57
2022-10-20T01:47:49.964Z,13.53
2022-10-20T01:50:21.037Z,13.17
2022-10-20T01:52:50.147Z,14.70
2022-10-20T01:55:20.165Z,14.63
2022-10-20T01:58:05.128Z,13.50
2022-10-20T02:00:38.021Z,14.90
2022-10-20T02:03:33.381Z,14.00
2022-10-20T02:06:15.884Z,14.57
2022-10-20T02:08:47.774Z,14.60
2022-10-20T02:11:23.882Z,14.13
2022-10-20T02:13:54.372Z,15.27
2022-10-20T02:16:31.170Z,14.13
2022-10-20T02:19:01.120Z,14.20
2022-10-20T02:21:30.284Z,14.33
2022-10-20T02:24:04.095Z,14.33
2022-10-20T02:26:35.459Z,14.80
2022-10-20T02:29:07.876Z,15.40
2022-10-20T02:31:38.228Z,15.27
2022-10-20T02:34:07.404Z,15.30
2022-10-20T02:36:40.987Z,16.00
2022-10-20T02:39:11.027Z,13.60
2022-10-20T02:41:40.260Z,14.70
2022-10-20T02:44:09.418Z,14.70
2022-10-20T02:46:39.780Z,15.10
2022-10-20T02:49:08.828Z,14.00
2022-10-20T02:51:37.738Z,14.10
2022-10-20T02:54:06.717Z,13.60
2022-10-20T02:56:35.653Z,14.17
2022-10-20T02:59:04.788Z,14.00
2022-10-20T03:01:33.745Z,13.27
2022-10-20T03:04:04.158Z,13.13
2022-10-20T03:06:33.442Z,14.30
2022-10-20T03:09:02.555Z,13.63
2022-10-20T03:11:31.501Z,14.83
2022-10-20T03:14:00.503Z,13.10
2022-10-20T03:16:29.540Z,13.33
2022-10-20T03:19:01.565Z,13.90
2022-10-20T03:21:35.345Z,13.60
2022-10-20T03:24:04.254Z,14.83
2022-10-20T03:26:33.536Z,15.00
2022-10-20T03:29:04.600Z,14.63
2022-10-20T03:31:33.619Z,13.63
2022-10-20T03:34:02.453Z,14.37
2022-10-20T03:36:33.515Z,14.03
2022-10-20T03:39:03.837Z,13.87
2022-10-20T03:41:32.733Z,12.93
2022-10-20T03:44:03.909Z,14.27
2022-10-20T03:46:33.006Z,14.37
2022-10-20T03:49:01.996Z,12.17
2022-10-20T03:51:30.982Z,13.07
2022-10-20T03:53:59.928Z,13.80
2022-10-20T03:56:30.351Z,11.40
2022-10-20T03:58:59.451Z,13.43
2022-10-20T04:01:32.488Z,12.10
2022-10-20T04:04:01.569Z,12.77
2022-10-20T04:06:30.627Z,11.40
2022-10-20T04:08:59.643Z,11.03
2022-10-20T04:11:30.048Z,11.17
2022-10-20T04:13:59.032Z,11.43
2022-10-20T04:16:28.384Z,11.93
2022-10-20T04:18:58.111Z,11.73
2022-10-20T04:21:27.059Z,12.47
2022-10-20T04:23:56.026Z,13.60
2022-10-20T04:26:27.136Z,13.20
2022-10-20T04:28:59.247Z,13.03
2022-10-20T04:31:28.539Z,13.17
2022-10-20T04:33:57.543Z,13.17
2022-10-20T04:36:26.460Z,13.23
2022-10-20T04:38:55.333Z,12.20
2022-10-20T04:41:24.446Z,14.07
2022-10-20T04:43:54.326Z,13.87
2022-10-20T04:49:12.236Z,24.93
2022-10-20T04:51:41.290Z,12.70
2022-10-20T04:54:10.350Z,11.47
2022-10-20T04:56:39.276Z,15.43
2022-10-20T04:59:11.096Z,12.53
2022-10-20T05:01:44.185Z,14.43
2022-10-20T05:04:13.651Z,11.60
2022-10-20T05:06:43.091Z,12.50
2022-10-20T05:09:17.277Z,13.70
2022-10-20T05:11:46.654Z,11.63
2022-10-20T05:14:15.600Z,12.70
2022-10-20T05:16:45.983Z,11.93
2022-10-20T05:19:15.350Z,12.13
2022-10-20T05:21:44.831Z,11.30
2022-10-20T05:24:19.838Z,13.10
2022-10-20T05:26:50.487Z,12.03
2022-10-20T05:29:19.428Z,12.73
2022-10-20T05:31:49.802Z,12.80
2022-10-20T05:34:18.857Z,14.50
2022-10-20T05:36:47.902Z,11.23
2022-10-20T05:39:16.910Z,12.60
2022-10-20T05:41:45.982Z,13.67
2022-10-20T05:44:15.690Z,12.57
2022-10-20T05:46:44.659Z,12.97
2022-10-20T05:49:21.613Z,13.10
2022-10-20T05:51:50.975Z,11.67
2022-10-20T05:54:19.890Z,12.00
2022-10-20T05:56:49.168Z,13.50
2022-10-20T05:59:18.297Z,13.50
2022-10-20T06:01:50.113Z,12.47
2022-10-20T06:04:23.899Z,10.53
2022-10-20T06:06:53.559Z,12.70
2022-10-20T06:09:23.381Z,11.97
2022-10-20T06:11:52.760Z,11.40
2022-10-20T06:14:22.987Z,13.77
2022-10-20T06:16:53.231Z,13.77
2022-10-20T06:19:24.265Z,12.80
2022-10-20T06:21:53.781Z,12.77
2022-10-20T06:24:22.625Z,12.27
2022-10-20T06:26:51.777Z,11.77
2022-10-20T06:29:20.942Z,13.20
2022-10-20T06:31:51.656Z,11.90
2022-10-20T06:34:26.313Z,13.10
2022-10-20T06:36:55.473Z,14.50
2022-10-20T06:39:25.980Z,13.50
2022-10-20T06:44:47.409Z,12.37
2022-10-20T06:47:16.386Z,11.17
2022-10-20T06:49:46.858Z,12.47
2022-10-20T06:52:15.949Z,12.20
2022-10-20T06:54:47.184Z,12.60
2022-10-20T06:57:16.290Z,11.80
2022-10-20T06:59:45.129Z,13.03
2022-10-20T07:02:14.198Z,13.00
2022-10-20T07:04:43.390Z,13.10
2022-10-20T07:07:13.845Z,13.20
2022-10-20T07:09:42.952Z,12.10
2022-10-20T07:12:12.408Z,13.33
2022-10-20T07:14:41.463Z,14.00
2022-10-20T07:17:10.471Z,13.83
2022-10-20T07:19:39.534Z,12.77
2022-10-20T07:22:08.662Z,12.73
2022-10-20T07:24:39.203Z,14.67
2022-10-20T07:27:08.171Z,12.97
2022-10-20T07:29:37.172Z,13.50
2022-10-20T07:32:06.418Z,14.33
2022-10-20T07:34:35.459Z,13.93
2022-10-20T07:37:04.578Z,14.70
2022-10-20T07:39:33.685Z,13.73
2022-10-20T07:42:04.249Z,17.50
2022-10-20T07:44:33.164Z,15.30
2022-10-20T07:47:02.057Z,14.07
2022-10-20T07:49:46.383Z,15.23
2022-10-20T07:52:16.863Z,16.40
2022-10-20T07:54:46.211Z,14.80
2022-10-20T07:57:16.708Z,15.97
2022-10-20T07:59:47.830Z,14.60
2022-10-20T08:02:17.105Z,14.17
2022-10-20T08:04:46.260Z,17.13
2022-10-20T08:07:15.573Z,16.17
2022-10-20T08:12:15.988Z,13.90
2022-10-20T08:14:57.746Z,14.60
2022-10-20T08:17:27.459Z,14.50
2022-10-20T08:20:17.580Z,19.37
2022-10-20T08:22:46.826Z,14.27
2022-10-20T08:25:16.627Z,18.20
2022-10-20T08:27:47.045Z,14.37
2022-10-20T08:30:23.904Z,15.10
2022-10-20T08:32:55.278Z,24.53
2022-10-20T08:35:25.232Z,13.00
2022-10-20T08:37:54.308Z,14.20
2022-10-20T08:40:26.730Z,12.20
2022-10-20T08:42:57.851Z,13.17
2022-10-20T08:45:29.388Z,18.23
2022-10-20T08:48:00.221Z,12.50
2022-10-20T08:50:31.087Z,13.03
2022-10-20T08:53:02.251Z,12.50
2022-10-20T08:55:33.204Z,12.43
2022-10-20T08:58:07.270Z,14.30
2022-10-20T09:00:41.460Z,12.90
2022-10-20T09:03:19.554Z,13.50
2022-10-20T09:05:53.504Z,13.50
2022-10-20T09:08:25.039Z,12.30
2022-10-20T09:10:56.726Z,14.77
2022-10-20T09:13:30.155Z,14.20
2022-10-20T09:16:04.016Z,18.30
2022-10-20T09:18:34.075Z,14.33
2022-10-20T09:21:05.650Z,18.00
2022-10-20T09:23:41.962Z,14.67
2022-10-20T09:26:30.439Z,13.33
2022-10-20T09:29:14.482Z,12.20
2022-10-20T09:31:46.164Z,12.53
2022-10-20T09:34:26.600Z,15.00
2022-10-20T09:36:59.587Z,11.63
2022-10-20T09:39:33.291Z,13.20
2022-10-20T09:42:05.878Z,14.60
2022-10-20T09:44:49.536Z,14.90
2022-10-20T09:47:20.495Z,12.90
2022-10-20T09:49:59.994Z,13.10
2022-10-20T09:52:35.123Z,16.97
2022-10-20T09:55:09.129Z,14.53
2022-10-20T09:57:38.180Z,12.70
2022-10-20T10:00:36.218Z,13.63
2022-10-20T10:03:24.665Z,13.40
2022-10-20T10:05:56.324Z,13.90
2022-10-20T10:08:27.912Z,13.37
2022-10-20T10:11:03.107Z,13.20
2022-10-20T10:13:38.590Z,13.93
2022-10-20T10:16:11.284Z,14.40
2022-10-20T10:18:41.325Z,14.70
2022-10-20T10:21:15.649Z,12.73
2022-10-20T10:23:53.474Z,13.07
2022-10-20T10:26:46.704Z,13.30
2022-10-20T10:29:23.478Z,13.83
2022-10-20T10:31:59.357Z,18.90
2022-10-20T10:34:45.230Z,12.93
2022-10-20T10:37:16.339Z,14.37
2022-10-20T10:39:45.641Z,14.20
2022-10-20T10:42:35.936Z,13.80
2022-10-20T10:45:20.640Z,13.60
2022-10-20T10:48:25.050Z,14.40
2022-10-20T10:51:00.391Z,12.63
2022-10-20T10:53:45.194Z,13.80
2022-10-20T10:56:26.489Z,14.40
2022-10-20T10:58:59.775Z,14.27
2022-10-20T11:01:50.372Z,15.40
2022-10-20T11:04:47.377Z,18.97
2022-10-20T11:07:32.153Z,13.70
2022-10-20T11:10:10.951Z,14.00
2022-10-20T11:12:53.146Z,14.73
2022-10-20T11:15:45.740Z,15.23
2022-10-20T11:18:23.769Z,13.77
2022-10-20T11:21:01.263Z,14.27
2022-10-20T11:24:03.992Z,12.90
2022-10-20T11:26:35.340Z,13.97
2022-10-20T11:29:07.292Z,15.50
2022-10-20T11:31:42.317Z,15.30
2022-10-20T11:34:17.442Z,14.90
2022-10-20T11:36:51.087Z,16.70
2022-10-20T11:39:27.637Z,13.83
2022-10-20T11:42:02.609Z,14.47
2022-10-20T11:44:38.640Z,14.10
2022-10-20T11:47:12.564Z,15.17
2022-10-20T11:49:42.568Z,15.27
2022-10-20T11:52:50.229Z,14.20
2022-10-20T11:55:49.768Z,14.37
2022-10-20T11:58:46.593Z,19.80
2022-10-20T12:01:33.709Z,17.37
2022-10-20T12:04:33.463Z,15.03
2022-10-20T12:07:19.206Z,14.50
2022-10-20T12:10:04.631Z,12.53
2022-10-20T12:12:43.735Z,14.67
2022-10-20T12:15:23.218Z,14.50
2022-10-20T12:17:53.678Z,15.83
2022-10-20T12:21:01.703Z,15.60
2022-10-20T12:24:15.549Z,13.77
2022-10-20T12:27:20.219Z,14.10
2022-10-20T12:29:55.293Z,12.17
2022-10-20T12:32:38.134Z,13.97
2022-10-20T12:35:32.817Z,13.67
2022-10-20T12:38:04.768Z,13.00
2022-10-20T12:40:35.712Z,12.30
2022-10-20T12:43:04.886Z,16.90
2022-10-20T12:45:44.504Z,14.63
2022-10-20T12:48:23.884Z,14.10
2022-10-20T12:50:53.834Z,14.33
2022-10-20T12:53:27.004Z,15.47
2022-10-20T12:55:59.992Z,14.87
2022-10-20T12:58:31.489Z,14.03
2022-10-20T13:01:19.816Z,14.73
2022-10-20T13:03:50.111Z,15.77
2022-10-20T13:06:42.211Z,14.40
2022-10-20T13:09:26.674Z,18.27
2022-10-20T13:12:06.323Z,16.80
2022-10-20T13:14:52.907Z,15.10
2022-10-20T13:17:39.141Z,16.70
2022-10-20T13:20:22.030Z,17.10
2022-10-20T13:22:54.476Z,17.77
2022-10-20T13:25:40.702Z,17.30
2022-10-20T13:28:20.487Z,24.17
2022-10-20T13:31:08.175Z,16.00
2022-10-20T13:34:03.349Z,14.43
2022-10-20T13:36:52.367Z,15.57
2022-10-20T13:39:31.061Z,15.20
2022-10-20T13:42:13.954Z,23.67
2022-10-20T13:44:59.993Z,15.07
2022-10-20T13:47:47.575Z,14.90
2022-10-20T13:50:22.371Z,14.37
2022-10-20T13:52:54.060Z,15.83
2022-10-20T13:55:25.738Z,18.33
2022-10-20T13:57:57.399Z,13.33
2022-10-20T14:00:28.836Z,14.67
2022-10-20T14:03:01.479Z,14.27
2022-10-20T14:05:39.312Z,13.80
2022-10-20T14:08:10.903Z,14.23
2022-10-20T14:10:46.533Z,12.87
2022-10-20T14:13:19.503Z,12.80
2022-10-20T14:15:50.905Z,12.40
2022-10-20T14:18:26.729Z,13.43
2022-10-20T14:21:05.014Z,12.57
2022-10-20T14:23:37.086Z,14.03
2022-10-20T14:26:08.813Z,12.90
2022-10-20T14:28:38.895Z,15.87
2022-10-20T14:31:10.096Z,14.63
2022-10-20T14:33:44.667Z,13.40
2022-10-20T14:36:22.067Z,11.50
2022-10-20T14:38:53.669Z,12.17
2022-10-20T14:41:28.039Z,10.90
2022-10-20T14:44:04.957Z,11.70
2022-10-20T14:46:40.815Z,10.90
2022-10-20T14:49:18.004Z,17.13
2022-10-20T14:51:57.505Z,9.83
2022-10-20T14:54:39.395Z,11.20
2022-10-20T14:57:42.168Z,10.53
2022-10-20T15:00:31.287Z,11.10
2022-10-20T15:03:03.651Z,9.70
2022-10-20T15:05:40.934Z,9.93
2022-10-20T15:08:18.723Z,10.40
2022-10-20T15:10:48.611Z,13.40
2022-10-20T15:13:27.865Z,10.17
2022-10-20T15:15:58.531Z,10.13
2022-10-20T15:18:29.381Z,9.83
2022-10-20T15:20:59.102Z,10.50
2022-10-20T15:23:30.235Z,9.97
2022-10-20T15:26:05.132Z,8.70
2022-10-20T15:28:38.553Z,7.60
2022-10-20T15:31:16.767Z,8.90
2022-10-20T15:33:45.783Z,8.40
2022-10-20T15:36:16.710Z,9.77
2022-10-20T15:38:47.613Z,9.53
2022-10-20T15:41:20.870Z,6.97
2022-10-20T15:43:50.068Z,6.60
2022-10-20T15:46:20.038Z,7.30
2022-10-20T15:48:49.135Z,7.27
2022-10-20T15:51:22.266Z,7.00
2022-10-20T15:53:53.140Z,6.40
2022-10-20T15:56:22.532Z,7.87
2022-10-20T15:58:51.938Z,7.10
2022-10-20T16:01:23.202Z,6.93
2022-10-20T16:03:53.291Z,5.97
2022-10-20T16:06:22.336Z,7.70
2022-10-20T16:08:53.272Z,8.30
2022-10-20T16:11:23.157Z,8.73
2022-10-20T16:13:52.242Z,8.23
2022-10-20T16:16:21.676Z,7.33
2022-10-20T16:18:50.958Z,8.33
2022-10-20T16:21:19.945Z,9.67
2022-10-20T16:23:48.912Z,11.90
2022-10-20T16:26:23.644Z,11.67
2022-10-20T16:28:52.736Z,10.70
2022-10-20T16:31:22.157Z,12.13
2022-10-20T16:33:51.333Z,9.80
2022-10-20T16:36:21.911Z,12.87
2022-10-20T16:38:56.840Z,16.27
2022-10-20T16:41:27.321Z,16.67
2022-10-20T16:43:58.874Z,14.53
2022-10-20T16:46:30.232Z,14.90
2022-10-20T16:48:59.288Z,13.03
2022-10-20T16:51:28.447Z,12.90
2022-10-20T16:54:02.884Z,13.60
2022-10-20T16:56:33.794Z,13.73
2022-10-20T16:59:03.089Z,13.90
2022-10-20T17:01:32.617Z,14.77
2022-10-20T17:04:01.799Z,13.80
2022-10-20T17:06:30.981Z,13.47
2022-10-20T17:09:00.887Z,14.00
2022-10-20T17:11:31.646Z,12.97
2022-10-20T17:14:02.305Z,13.00
2022-10-20T17:16:33.095Z,12.93
2022-10-20T17:19:03.831Z,12.80
2022-10-20T17:21:34.657Z,14.60
2022-10-20T17:24:03.956Z,15.57
2022-10-20T17:26:33.472Z,12.20
2022-10-20T17:29:06.244Z,11.53
2022-10-20T17:31:36.073Z,12.83
2022-10-20T17:34:05.746Z,13.87
2022-10-20T17:36:35.266Z,12.77
2022-10-20T17:39:08.778Z,14.50
2022-10-20T17:41:37.998Z,12.27
2022-10-20T17:44:09.621Z,11.60
2022-10-20T17:46:38.931Z,15.47
2022-10-20T17:49:08.061Z,15.30
2022-10-20T17:51:37.302Z,14.10
2022-10-20T17:54:08.816Z,13.37
2022-10-20T17:56:40.333Z,14.50
2022-10-20T18:01:46.073Z,15.17
2022-10-20T18:04:17.019Z,13.10
2022-10-20T18:06:47.528Z,13.00
2022-10-20T18:09:20.636Z,14.43
2022-10-20T18:11:51.944Z,11.60
2022-10-20T18:14:22.557Z,11.27
2022-10-20T18:16:51.721Z,12.53
2022-10-20T18:19:21.458Z,12.07
2022-10-20T18:21:50.568Z,14.17
2022-10-20T18:24:20.413Z,14.87
2022-10-20T18:26:49.440Z,14.63
2022-10-20T18:29:21.463Z,12.70
2022-10-20T18:31:52.302Z,13.40
2022-10-20T18:34:21.941Z,13.30
2022-10-20T18:36:53.784Z,15.33
2022-10-20T18:39:23.093Z,14.57
2022-10-20T18:41:54.781Z,17.63
2022-10-20T18:44:24.193Z,14.77
2022-10-20T18:46:59.814Z,17.90
2022-10-20T18:49:29.020Z,14.07
2022-10-20T18:51:57.963Z,14.37
2022-10-20T18:54:28.735Z,14.30
2022-10-20T18:56:57.725Z,13.90
2022-10-20T18:59:26.808Z,15.00
2022-10-20T19:01:57.462Z,15.00
2022-10-20T19:04:26.670Z,16.30
2022-10-20T19:06:56.489Z,15.63
2022-10-20T19:09:25.986Z,15.73
2022-10-20T19:11:55.899Z,14.20
2022-10-20T19:14:25.204Z,15.97
2022-10-20T19:16:54.170Z,13.00
2022-10-20T19:19:24.663Z,14.27
2022-10-20T19:21:53.694Z,13.33
2022-10-20T19:24:24.222Z,15.37
2022-10-20T19:27:21.345Z,15.50
2022-10-20T19:29:46.703Z,16.37
2022-10-20T19:32:15.846Z,15.50
2022-10-20T19:34:46.808Z,13.80
2022-10-20T19:37:15.999Z,13.57
2022-10-20T19:39:45.191Z,12.87
2022-10-20T19:42:14.207Z,12.37
2022-10-20T19:44:43.533Z,12.40
2022-10-20T19:47:12.995Z,11.33
2022-10-20T19:49:42.091Z,12.60
2022-10-20T19:52:13.543Z,16.30
2022-10-20T19:54:42.933Z,12.47
2022-10-20T19:57:11.908Z,15.20
2022-10-20T19:59:41.023Z,12.40
2022-10-20T20:02:11.255Z,12.90
2022-10-20T20:04:40.677Z,13.40
2022-10-20T20:07:09.896Z,14.53
2022-10-20T20:09:40.398Z,13.73
2022-10-20T20:12:10.074Z,13.83
2022-10-20T20:14:39.503Z,14.60
2022-10-20T20:17:10.917Z,15.23
2022-10-20T20:19:40.310Z,12.40
2022-10-20T20:22:09.391Z,13.00
2022-10-20T20:24:40.049Z,17.37
2022-10-20T20:27:09.264Z,13.80
2022-10-20T20:29:38.326Z,14.20
2022-10-20T20:32:07.584Z,13.53
2022-10-20T20:34:36.589Z,13.53
2022-10-20T20:37:08.080Z,12.23
2022-10-20T20:39:37.334Z,12.13
2022-10-20T20:42:08.374Z,11.90
2022-10-20T20:44:37.759Z,11.23
2022-10-20T20:47:06.914Z,26.57
2022-10-20T20:49:36.107Z,11.57
2022-10-20T20:52:05.167Z,24.57
2022-10-20T20:54:34.352Z,16.10
2022-10-20T20:57:03.446Z,10.70
2022-10-20T20:59:34.047Z,15.63
2022-10-20T21:02:03.215Z,10.77
2022-10-20T21:04:32.123Z,12.77
2022-10-20T21:07:02.707Z,13.47
2022-10-20T21:09:32.717Z,14.37
2022-10-20T21:12:01.749Z,11.00
2022-10-20T21:14:31.464Z,10.70
2022-10-20T21:17:02.239Z,10.73
2022-10-20T21:19:31.351Z,10.17
2022-10-20T21:22:01.536Z,9.80
2022-10-20T21:24:30.664Z,9.27
2022-10-20T21:26:59.643Z,12.23
2022-10-20T21:29:28.986Z,10.50
2022-10-20T21:31:58.665Z,10.33
2022-10-20T21:34:29.745Z,13.90
2022-10-20T21:36:58.864Z,12.80
2022-10-20T21:39:28.001Z,12.97
2022-10-20T21:41:59.455Z,12.60
2022-10-20T21:44:28.444Z,11.30
2022-10-20T21:46:57.466Z,12.53
2022-10-20T21:49:26.595Z,11.70
2022-10-20T21:51:58.435Z,12.77
2022-10-20T21:54:29.360Z,11.90
2022-10-20T21:56:58.765Z,11.27
2022-10-20T21:59:29.089Z,11.00
2022-10-20T22:02:00.051Z,10.63
2022-10-20T22:04:31.092Z,10.27
2022-10-20T22:07:01.622Z,10.10
2022-10-20T22:09:30.886Z,10.70
2022-10-20T22:11:59.942Z,10.50
2022-10-20T22:14:30.761Z,8.33
2022-10-20T22:17:00.063Z,11.17
2022-10-20T22:19:29.391Z,10.27
2022-10-20T22:21:59.834Z,8.80
2022-10-20T22:24:31.327Z,10.20
2022-10-20T22:27:00.637Z,10.37
2022-10-20T22:29:30.051Z,9.50
2022-10-20T22:32:01.416Z,10.50
2022-10-20T22:34:30.704Z,10.40
2022-10-20T22:36:59.657Z,10.57
2022-10-20T22:39:30.082Z,10.30
2022-10-20T22:41:59.171Z,10.10
2022-10-20T22:44:28.280Z,8.53
2022-10-20T22:46:59.700Z,10.30
2022-10-20T22:49:28.809Z,8.90
2022-10-20T22:51:57.914Z,9.03
2022-10-20T22:54:29.608Z,8.50
2022-10-20T22:57:00.082Z,8.23
2022-10-20T22:59:29.165Z,8.50
2022-10-20T23:01:58.304Z,7.90
2022-10-20T23:04:27.471Z,7.20
2022-10-20T23:06:59.173Z,7.57
2022-10-20T23:09:29.773Z,6.97
2022-10-20T23:12:00.424Z,6.60
2022-10-20T23:14:29.490Z,7.33
2022-10-20T23:16:58.453Z,6.40
2022-10-20T23:19:27.469Z,5.57
2022-10-20T23:21:56.565Z,6.70
2022-10-20T23:24:25.601Z,8.10
2022-10-20T23:26:54.629Z,7.47
2022-10-20T23:29:25.171Z,7.20
2022-10-20T23:31:54.185Z,7.13
2022-10-20T23:34:23.196Z,7.50
2022-10-20T23:36:52.310Z,5.80
2022-10-20T23:39:21.250Z,5.97
2022-10-20T23:41:50.276Z,5.80
2022-10-20T23:44:19.285Z,6.03
2022-10-20T23:46:52.224Z,5.90
2022-10-20T23:49:21.298Z,6.70
2022-10-20T23:51:50.308Z,5.60
2022-10-20T23:54:21.426Z,5.77
2022-10-20T23:56:50.423Z,6.40
2022-10-20T23:59:19.377Z,5.50
